sensor_id;sensor_type;location;lat;lon;timestamp;temperature;humidity
57660;DHT22;43485;45.680;15.702;2024-03-22T00:02:02;13.30;68.40
57660;DHT22;43485;45.680;15.702;2024-03-22T00:04:28;13.30;68.70
57660;DHT22;43485;45.680;15.702;2024-03-22T00:06:54;13.30;68.50
57660;DHT22;43485;45.680;15.702;2024-03-22T00:09:20;13.30;68.70
57660;DHT22;43485;45.680;15.702;2024-03-22T00:11:46;13.30;68.20
57660;DHT22;43485;45.680;15.702;2024-03-22T00:14:12;13.30;68.70
57660;DHT22;43485;45.680;15.702;2024-03-22T00:16:39;13.30;68.10
57660;DHT22;43485;45.680;15.702;2024-03-22T00:19:05;13.30;67.70
57660;DHT22;43485;45.680;15.702;2024-03-22T00:21:31;13.30;68.00
57660;DHT22;43485;45.680;15.702;2024-03-22T00:23:57;13.30;67.60
57660;DHT22;43485;45.680;15.702;2024-03-22T00:26:23;13.30;67.10
57660;DHT22;43485;45.680;15.702;2024-03-22T00:28:50;13.20;67.20
57660;DHT22;43485;45.680;15.702;2024-03-22T00:31:16;13.30;68.10
57660;DHT22;43485;45.680;15.702;2024-03-22T00:33:43;13.20;67.80
57660;DHT22;43485;45.680;15.702;2024-03-22T00:36:09;13.20;68.10
57660;DHT22;43485;45.680;15.702;2024-03-22T00:38:35;13.10;67.90
57660;DHT22;43485;45.680;15.702;2024-03-22T00:41:01;13.10;67.90
57660;DHT22;43485;45.680;15.702;2024-03-22T00:43:27;13.10;68.10
57660;DHT22;43485;45.680;15.702;2024-03-22T00:45:54;13.20;68.50
57660;DHT22;43485;45.680;15.702;2024-03-22T00:48:20;13.10;67.80
57660;DHT22;43485;45.680;15.702;2024-03-22T00:50:46;13.20;68.20
57660;DHT22;43485;45.680;15.702;2024-03-22T00:53:12;13.20;67.50
57660;DHT22;43485;45.680;15.702;2024-03-22T00:55:38;13.20;67.40
57660;DHT22;43485;45.680;15.702;2024-03-22T00:58:04;13.20;67.40
57660;DHT22;43485;45.680;15.702;2024-03-22T01:00:30;13.20;66.90
57660;DHT22;43485;45.680;15.702;2024-03-22T01:02:56;13.20;67.00
57660;DHT22;43485;45.680;15.702;2024-03-22T01:05:22;13.20;67.20
57660;DHT22;43485;45.680;15.702;2024-03-22T01:07:48;13.20;67.50
57660;DHT22;43485;45.680;15.702;2024-03-22T01:10:14;13.20;67.60
57660;DHT22;43485;45.680;15.702;2024-03-22T01:12:40;13.30;67.70
57660;DHT22;43485;45.680;15.702;2024-03-22T01:15:07;13.20;67.70
57660;DHT22;43485;45.680;15.702;2024-03-22T01:17:34;13.30;67.00
57660;DHT22;43485;45.680;15.702;2024-03-22T01:20:01;13.30;67.40
57660;DHT22;43485;45.680;15.702;2024-03-22T01:22:27;13.20;66.80
57660;DHT22;43485;45.680;15.702;2024-03-22T01:24:53;13.30;67.30
57660;DHT22;43485;45.680;15.702;2024-03-22T01:27:19;13.30;66.70
57660;DHT22;43485;45.680;15.702;2024-03-22T01:29:46;13.30;66.60
57660;DHT22;43485;45.680;15.702;2024-03-22T01:32:13;13.30;66.80
57660;DHT22;43485;45.680;15.702;2024-03-22T01:34:39;13.30;66.50
57660;DHT22;43485;45.680;15.702;2024-03-22T01:37:05;13.30;66.80
57660;DHT22;43485;45.680;15.702;2024-03-22T01:39:32;13.30;66.30
57660;DHT22;43485;45.680;15.702;2024-03-22T01:41:58;13.30;67.30
57660;DHT22;43485;45.680;15.702;2024-03-22T01:44:43;13.20;67.40
57660;DHT22;43485;45.680;15.702;2024-03-22T01:47:09;13.20;67.20
57660;DHT22;43485;45.680;15.702;2024-03-22T01:49:35;13.20;67.10
57660;DHT22;43485;45.680;15.702;2024-03-22T01:52:01;13.20;67.10
57660;DHT22;43485;45.680;15.702;2024-03-22T01:54:28;13.10;67.30
57660;DHT22;43485;45.680;15.702;2024-03-22T01:56:56;13.10;67.30
57660;DHT22;43485;45.680;15.702;2024-03-22T01:59:22;13.10;67.00
57660;DHT22;43485;45.680;15.702;2024-03-22T02:01:49;13.00;67.30
57660;DHT22;43485;45.680;15.702;2024-03-22T02:04:15;13.00;67.20
57660;DHT22;43485;45.680;15.702;2024-03-22T02:06:41;12.90;68.30
57660;DHT22;43485;45.680;15.702;2024-03-22T02:09:07;12.90;68.30
57660;DHT22;43485;45.680;15.702;2024-03-22T02:11:37;12.90;68.30
57660;DHT22;43485;45.680;15.702;2024-03-22T02:14:03;12.80;68.00
57660;DHT22;43485;45.680;15.702;2024-03-22T02:16:29;12.90;68.20
57660;DHT22;43485;45.680;15.702;2024-03-22T02:18:55;12.90;67.80
57660;DHT22;43485;45.680;15.702;2024-03-22T02:21:21;12.90;68.10
57660;DHT22;43485;45.680;15.702;2024-03-22T02:23:47;12.90;67.80
57660;DHT22;43485;45.680;15.702;2024-03-22T02:26:13;12.90;68.50
57660;DHT22;43485;45.680;15.702;2024-03-22T02:28:39;12.90;68.40
57660;DHT22;43485;45.680;15.702;2024-03-22T02:31:05;12.80;68.50
57660;DHT22;43485;45.680;15.702;2024-03-22T02:33:31;12.80;68.50
57660;DHT22;43485;45.680;15.702;2024-03-22T02:35:57;12.80;68.40
57660;DHT22;43485;45.680;15.702;2024-03-22T02:38:24;12.80;68.40
57660;DHT22;43485;45.680;15.702;2024-03-22T02:40:52;12.80;68.70
57660;DHT22;43485;45.680;15.702;2024-03-22T02:43:18;12.80;68.70
57660;DHT22;43485;45.680;15.702;2024-03-22T02:45:47;12.80;68.80
57660;DHT22;43485;45.680;15.702;2024-03-22T02:48:13;12.70;68.30
57660;DHT22;43485;45.680;15.702;2024-03-22T02:50:39;12.70;69.00
57660;DHT22;43485;45.680;15.702;2024-03-22T02:53:05;12.70;69.10
57660;DHT22;43485;45.680;15.702;2024-03-22T02:55:50;12.70;68.70
57660;DHT22;43485;45.680;15.702;2024-03-22T02:58:19;12.70;68.70
57660;DHT22;43485;45.680;15.702;2024-03-22T03:00:47;12.60;68.60
57660;DHT22;43485;45.680;15.702;2024-03-22T03:03:13;12.60;69.10
57660;DHT22;43485;45.680;15.702;2024-03-22T03:05:39;12.60;69.40
57660;DHT22;43485;45.680;15.702;2024-03-22T03:08:06;12.60;69.30
57660;DHT22;43485;45.680;15.702;2024-03-22T03:10:32;12.60;69.10
57660;DHT22;43485;45.680;15.702;2024-03-22T03:12:58;12.60;69.40
57660;DHT22;43485;45.680;15.702;2024-03-22T03:15:24;12.60;69.70
57660;DHT22;43485;45.680;15.702;2024-03-22T03:17:51;12.60;69.40
57660;DHT22;43485;45.680;15.702;2024-03-22T03:20:17;12.50;69.70
57660;DHT22;43485;45.680;15.702;2024-03-22T03:22:43;12.50;69.60
57660;DHT22;43485;45.680;15.702;2024-03-22T03:25:09;12.50;69.50
57660;DHT22;43485;45.680;15.702;2024-03-22T03:27:35;12.50;69.70
57660;DHT22;43485;45.680;15.702;2024-03-22T03:30:02;12.50;69.90
57660;DHT22;43485;45.680;15.702;2024-03-22T03:32:28;12.40;69.80
57660;DHT22;43485;45.680;15.702;2024-03-22T03:34:54;12.50;70.00
57660;DHT22;43485;45.680;15.702;2024-03-22T03:37:21;12.40;70.10
57660;DHT22;43485;45.680;15.702;2024-03-22T03:39:47;12.30;69.50
57660;DHT22;43485;45.680;15.702;2024-03-22T03:42:13;12.30;70.60
57660;DHT22;43485;45.680;15.702;2024-03-22T03:44:39;12.30;70.30
57660;DHT22;43485;45.680;15.702;2024-03-22T03:47:07;12.30;71.00
57660;DHT22;43485;45.680;15.702;2024-03-22T03:49:33;12.20;70.00
57660;DHT22;43485;45.680;15.702;2024-03-22T03:51:59;12.20;70.50
57660;DHT22;43485;45.680;15.702;2024-03-22T03:54:25;12.20;70.70
57660;DHT22;43485;45.680;15.702;2024-03-22T03:56:51;12.10;70.50
57660;DHT22;43485;45.680;15.702;2024-03-22T03:59:17;12.10;70.40
57660;DHT22;43485;45.680;15.702;2024-03-22T04:01:43;12.10;70.30
57660;DHT22;43485;45.680;15.702;2024-03-22T04:04:09;12.00;70.10
57660;DHT22;43485;45.680;15.702;2024-03-22T04:06:35;12.00;70.60
57660;DHT22;43485;45.680;15.702;2024-03-22T04:09:02;11.90;70.60
57660;DHT22;43485;45.680;15.702;2024-03-22T04:11:28;11.90;70.60
57660;DHT22;43485;45.680;15.702;2024-03-22T04:13:54;11.90;70.40
57660;DHT22;43485;45.680;15.702;2024-03-22T04:16:20;11.90;70.20
57660;DHT22;43485;45.680;15.702;2024-03-22T04:18:46;11.90;70.20
57660;DHT22;43485;45.680;15.702;2024-03-22T04:21:12;11.90;70.50
57660;DHT22;43485;45.680;15.702;2024-03-22T04:23:39;11.90;70.70
57660;DHT22;43485;45.680;15.702;2024-03-22T04:26:05;11.90;70.60
57660;DHT22;43485;45.680;15.702;2024-03-22T04:28:31;11.80;70.30
57660;DHT22;43485;45.680;15.702;2024-03-22T04:31:16;11.80;70.70
57660;DHT22;43485;45.680;15.702;2024-03-22T04:33:42;11.80;70.70
57660;DHT22;43485;45.680;15.702;2024-03-22T04:36:08;11.70;70.90
57660;DHT22;43485;45.680;15.702;2024-03-22T04:38:37;11.70;71.00
57660;DHT22;43485;45.680;15.702;2024-03-22T04:41:03;11.70;71.10
57660;DHT22;43485;45.680;15.702;2024-03-22T04:43:29;11.70;70.40
57660;DHT22;43485;45.680;15.702;2024-03-22T04:45:56;11.70;71.00
57660;DHT22;43485;45.680;15.702;2024-03-22T04:48:22;11.70;70.40
57660;DHT22;43485;45.680;15.702;2024-03-22T04:50:50;11.70;70.20
57660;DHT22;43485;45.680;15.702;2024-03-22T04:53:17;11.70;70.10
57660;DHT22;43485;45.680;15.702;2024-03-22T04:55:44;11.70;70.10
57660;DHT22;43485;45.680;15.702;2024-03-22T04:58:29;11.70;70.10
57660;DHT22;43485;45.680;15.702;2024-03-22T05:01:14;11.60;70.30
57660;DHT22;43485;45.680;15.702;2024-03-22T05:03:40;11.60;70.10
57660;DHT22;43485;45.680;15.702;2024-03-22T05:06:06;11.60;70.00
57660;DHT22;43485;45.680;15.702;2024-03-22T05:08:32;11.50;69.30
57660;DHT22;43485;45.680;15.702;2024-03-22T05:10:58;11.50;70.20
57660;DHT22;43485;45.680;15.702;2024-03-22T05:13:24;11.50;69.90
57660;DHT22;43485;45.680;15.702;2024-03-22T05:15:50;11.50;69.80
57660;DHT22;43485;45.680;15.702;2024-03-22T05:18:17;11.50;69.70
57660;DHT22;43485;45.680;15.702;2024-03-22T05:20:43;11.50;69.80
57660;DHT22;43485;45.680;15.702;2024-03-22T05:23:09;11.50;69.70
57660;DHT22;43485;45.680;15.702;2024-03-22T05:25:35;11.50;69.80
57660;DHT22;43485;45.680;15.702;2024-03-22T05:28:01;11.50;70.00
57660;DHT22;43485;45.680;15.702;2024-03-22T05:30:27;11.50;70.20
57660;DHT22;43485;45.680;15.702;2024-03-22T05:32:53;11.50;70.50
57660;DHT22;43485;45.680;15.702;2024-03-22T05:35:19;11.50;70.10
57660;DHT22;43485;45.680;15.702;2024-03-22T05:37:45;11.50;70.20
57660;DHT22;43485;45.680;15.702;2024-03-22T05:40:12;11.50;70.20
57660;DHT22;43485;45.680;15.702;2024-03-22T05:42:38;11.50;69.40
57660;DHT22;43485;45.680;15.702;2024-03-22T05:45:04;11.60;69.80
57660;DHT22;43485;45.680;15.702;2024-03-22T05:47:31;11.60;69.60
57660;DHT22;43485;45.680;15.702;2024-03-22T05:49:58;11.60;69.90
57660;DHT22;43485;45.680;15.702;2024-03-22T05:52:25;11.70;69.60
57660;DHT22;43485;45.680;15.702;2024-03-22T05:54:51;11.70;68.90
57660;DHT22;43485;45.680;15.702;2024-03-22T05:57:17;11.80;69.40
57660;DHT22;43485;45.680;15.702;2024-03-22T05:59:43;11.80;68.40
57660;DHT22;43485;45.680;15.702;2024-03-22T06:02:09;11.90;69.00
57660;DHT22;43485;45.680;15.702;2024-03-22T06:04:35;11.90;69.00
57660;DHT22;43485;45.680;15.702;2024-03-22T06:07:01;11.90;68.90
57660;DHT22;43485;45.680;15.702;2024-03-22T06:09:30;12.00;68.90
57660;DHT22;43485;45.680;15.702;2024-03-22T06:12:12;12.00;68.50
57660;DHT22;43485;45.680;15.702;2024-03-22T06:14:40;12.00;68.60
57660;DHT22;43485;45.680;15.702;2024-03-22T06:17:06;12.10;68.60
57660;DHT22;43485;45.680;15.702;2024-03-22T06:19:32;12.20;68.00
57660;DHT22;43485;45.680;15.702;2024-03-22T06:21:58;12.30;68.90
57660;DHT22;43485;45.680;15.702;2024-03-22T06:24:24;12.30;68.40
57660;DHT22;43485;45.680;15.702;2024-03-22T06:26:50;12.40;68.20
57660;DHT22;43485;45.680;15.702;2024-03-22T06:29:16;12.40;68.30
57660;DHT22;43485;45.680;15.702;2024-03-22T06:31:43;12.50;68.30
57660;DHT22;43485;45.680;15.702;2024-03-22T06:34:09;12.50;68.00
57660;DHT22;43485;45.680;15.702;2024-03-22T06:36:35;12.60;68.00
57660;DHT22;43485;45.680;15.702;2024-03-22T06:39:01;12.70;67.50
57660;DHT22;43485;45.680;15.702;2024-03-22T06:41:30;12.70;67.80
57660;DHT22;43485;45.680;15.702;2024-03-22T06:43:56;12.80;67.20
57660;DHT22;43485;45.680;15.702;2024-03-22T06:46:22;12.90;67.40
57660;DHT22;43485;45.680;15.702;2024-03-22T06:48:48;13.00;66.70
57660;DHT22;43485;45.680;15.702;2024-03-22T06:51:14;13.10;66.90
57660;DHT22;43485;45.680;15.702;2024-03-22T06:53:40;13.10;67.10
57660;DHT22;43485;45.680;15.702;2024-03-22T06:56:06;13.20;67.20
57660;DHT22;43485;45.680;15.702;2024-03-22T07:01:19;13.30;67.70
57660;DHT22;43485;45.680;15.702;2024-03-22T07:03:46;13.40;67.20
57660;DHT22;43485;45.680;15.702;2024-03-22T07:06:14;13.50;66.50
57660;DHT22;43485;45.680;15.702;2024-03-22T07:08:40;13.60;66.30
57660;DHT22;43485;45.680;15.702;2024-03-22T07:11:07;13.60;66.90
57660;DHT22;43485;45.680;15.702;2024-03-22T07:13:34;13.70;66.70
57660;DHT22;43485;45.680;15.702;2024-03-22T07:16:00;13.80;66.00
57660;DHT22;43485;45.680;15.702;2024-03-22T07:18:26;13.80;66.60
57660;DHT22;43485;45.680;15.702;2024-03-22T07:20:52;13.90;66.50
57660;DHT22;43485;45.680;15.702;2024-03-22T07:23:18;14.10;66.60
57660;DHT22;43485;45.680;15.702;2024-03-22T07:25:44;14.20;66.60
57660;DHT22;43485;45.680;15.702;2024-03-22T07:28:11;14.20;65.50
57660;DHT22;43485;45.680;15.702;2024-03-22T07:30:38;14.30;64.50
57660;DHT22;43485;45.680;15.702;2024-03-22T07:33:04;14.50;64.80
57660;DHT22;43485;45.680;15.702;2024-03-22T07:35:30;14.70;64.20
57660;DHT22;43485;45.680;15.702;2024-03-22T07:37:56;14.70;64.10
57660;DHT22;43485;45.680;15.702;2024-03-22T07:40:23;14.90;63.50
57660;DHT22;43485;45.680;15.702;2024-03-22T07:42:49;15.10;63.00
57660;DHT22;43485;45.680;15.702;2024-03-22T07:45:15;15.30;62.70
57660;DHT22;43485;45.680;15.702;2024-03-22T07:47:41;15.50;61.90
57660;DHT22;43485;45.680;15.702;2024-03-22T07:50:09;15.70;60.90
57660;DHT22;43485;45.680;15.702;2024-03-22T07:52:35;15.80;59.80
57660;DHT22;43485;45.680;15.702;2024-03-22T07:55:01;16.00;60.10
57660;DHT22;43485;45.680;15.702;2024-03-22T07:57:29;16.10;59.80
57660;DHT22;43485;45.680;15.702;2024-03-22T08:00:14;16.10;59.50
57660;DHT22;43485;45.680;15.702;2024-03-22T08:02:41;16.20;59.20
57660;DHT22;43485;45.680;15.702;2024-03-22T08:05:07;16.10;58.80
57660;DHT22;43485;45.680;15.702;2024-03-22T08:07:33;16.30;59.10
57660;DHT22;43485;45.680;15.702;2024-03-22T08:09:59;16.40;59.60
57660;DHT22;43485;45.680;15.702;2024-03-22T08:12:27;16.50;59.40
57660;DHT22;43485;45.680;15.702;2024-03-22T08:14:54;16.70;58.80
57660;DHT22;43485;45.680;15.702;2024-03-22T08:17:21;17.30;58.30
57660;DHT22;43485;45.680;15.702;2024-03-22T08:19:47;17.70;55.10
57660;DHT22;43485;45.680;15.702;2024-03-22T08:22:13;17.80;54.20
57660;DHT22;43485;45.680;15.702;2024-03-22T08:24:39;17.90;54.50
57660;DHT22;43485;45.680;15.702;2024-03-22T08:27:05;18.20;52.90
57660;DHT22;43485;45.680;15.702;2024-03-22T08:29:31;18.30;53.40
57660;DHT22;43485;45.680;15.702;2024-03-22T08:31:57;18.50;52.70
57660;DHT22;43485;45.680;15.702;2024-03-22T08:34:24;18.70;51.50
57660;DHT22;43485;45.680;15.702;2024-03-22T08:36:50;18.90;50.90
57660;DHT22;43485;45.680;15.702;2024-03-22T08:39:16;19.00;49.10
57660;DHT22;43485;45.680;15.702;2024-03-22T08:41:42;19.20;49.10
57660;DHT22;43485;45.680;15.702;2024-03-22T08:44:08;19.50;47.20
57660;DHT22;43485;45.680;15.702;2024-03-22T08:46:34;19.70;46.90
57660;DHT22;43485;45.680;15.702;2024-03-22T08:49:01;19.50;45.90
57660;DHT22;43485;45.680;15.702;2024-03-22T08:51:28;19.70;45.50
57660;DHT22;43485;45.680;15.702;2024-03-22T08:53:55;20.00;45.70
57660;DHT22;43485;45.680;15.702;2024-03-22T08:56:21;20.40;44.20
57660;DHT22;43485;45.680;15.702;2024-03-22T08:58:47;20.70;41.70
57660;DHT22;43485;45.680;15.702;2024-03-22T09:01:13;20.70;41.70
57660;DHT22;43485;45.680;15.702;2024-03-22T09:03:39;21.00;39.90
57660;DHT22;43485;45.680;15.702;2024-03-22T09:06:05;21.90;39.10
57660;DHT22;43485;45.680;15.702;2024-03-22T09:08:31;22.70;36.60
57660;DHT22;43485;45.680;15.702;2024-03-22T09:10:59;22.90;37.20
57660;DHT22;43485;45.680;15.702;2024-03-22T09:13:25;24.00;36.00
57660;DHT22;43485;45.680;15.702;2024-03-22T09:18:41;24.70;32.40
57660;DHT22;43485;45.680;15.702;2024-03-22T09:21:07;25.30;31.20
57660;DHT22;43485;45.680;15.702;2024-03-22T09:23:36;26.40;30.40
57660;DHT22;43485;45.680;15.702;2024-03-22T09:26:02;27.00;28.00
57660;DHT22;43485;45.680;15.702;2024-03-22T09:28:28;27.20;27.60
57660;DHT22;43485;45.680;15.702;2024-03-22T09:30:54;27.30;27.40
57660;DHT22;43485;45.680;15.702;2024-03-22T09:33:20;27.20;26.90
57660;DHT22;43485;45.680;15.702;2024-03-22T09:35:46;26.70;27.20
57660;DHT22;43485;45.680;15.702;2024-03-22T09:38:12;26.40;27.80
57660;DHT22;43485;45.680;15.702;2024-03-22T09:40:38;26.20;28.00
57660;DHT22;43485;45.680;15.702;2024-03-22T09:43:07;26.60;27.10
57660;DHT22;43485;45.680;15.702;2024-03-22T09:45:35;28.00;26.10
57660;DHT22;43485;45.680;15.702;2024-03-22T09:48:01;29.30;24.00
57660;DHT22;43485;45.680;15.702;2024-03-22T09:50:28;29.60;22.80
57660;DHT22;43485;45.680;15.702;2024-03-22T09:52:56;29.80;21.20
57660;DHT22;43485;45.680;15.702;2024-03-22T09:55:23;30.90;19.70
57660;DHT22;43485;45.680;15.702;2024-03-22T09:57:50;31.70;19.30
57660;DHT22;43485;45.680;15.702;2024-03-22T10:00:19;32.10;18.40
57660;DHT22;43485;45.680;15.702;2024-03-22T10:02:48;32.40;17.70
57660;DHT22;43485;45.680;15.702;2024-03-22T10:05:15;33.10;16.70
57660;DHT22;43485;45.680;15.702;2024-03-22T10:07:43;33.60;17.20
57660;DHT22;43485;45.680;15.702;2024-03-22T10:10:10;34.10;14.60
57660;DHT22;43485;45.680;15.702;2024-03-22T10:12:36;34.60;14.30
57660;DHT22;43485;45.680;15.702;2024-03-22T10:15:03;34.60;15.40
57660;DHT22;43485;45.680;15.702;2024-03-22T10:17:31;34.50;14.80
57660;DHT22;43485;45.680;15.702;2024-03-22T10:19:57;34.40;15.00
57660;DHT22;43485;45.680;15.702;2024-03-22T10:22:23;34.30;15.20
57660;DHT22;43485;45.680;15.702;2024-03-22T10:24:50;35.40;14.90
57660;DHT22;43485;45.680;15.702;2024-03-22T10:27:16;35.90;13.60
57660;DHT22;43485;45.680;15.702;2024-03-22T10:29:44;36.30;13.80
57660;DHT22;43485;45.680;15.702;2024-03-22T10:32:11;36.80;13.30
57660;DHT22;43485;45.680;15.702;2024-03-22T10:34:38;37.70;13.40
57660;DHT22;43485;45.680;15.702;2024-03-22T10:37:05;38.10;12.50
57660;DHT22;43485;45.680;15.702;2024-03-22T10:39:32;38.10;11.60
57660;DHT22;43485;45.680;15.702;2024-03-22T10:41:58;37.90;11.10
57660;DHT22;43485;45.680;15.702;2024-03-22T10:44:24;37.80;11.50
57660;DHT22;43485;45.680;15.702;2024-03-22T10:46:54;38.10;12.10
57660;DHT22;43485;45.680;15.702;2024-03-22T10:49:22;38.20;11.80
57660;DHT22;43485;45.680;15.702;2024-03-22T10:54:37;38.80;10.90
57660;DHT22;43485;45.680;15.702;2024-03-22T10:57:08;38.70;10.70
57660;DHT22;43485;45.680;15.702;2024-03-22T10:59:37;38.70;11.40
57660;DHT22;43485;45.680;15.702;2024-03-22T11:02:06;39.50;11.00
57660;DHT22;43485;45.680;15.702;2024-03-22T11:04:36;39.80;10.20
57660;DHT22;43485;45.680;15.702;2024-03-22T11:07:03;39.80;9.90
57660;DHT22;43485;45.680;15.702;2024-03-22T11:09:29;40.00;10.10
57660;DHT22;43485;45.680;15.702;2024-03-22T11:11:56;40.50;9.90
57660;DHT22;43485;45.680;15.702;2024-03-22T11:14:40;39.90;10.30
57660;DHT22;43485;45.680;15.702;2024-03-22T11:17:06;40.00;10.30
57660;DHT22;43485;45.680;15.702;2024-03-22T11:19:33;40.50;9.50
57660;DHT22;43485;45.680;15.702;2024-03-22T11:21:59;40.70;9.20
57660;DHT22;43485;45.680;15.702;2024-03-22T11:24:25;40.50;9.20
57660;DHT22;43485;45.680;15.702;2024-03-22T11:26:51;40.50;9.90
57660;DHT22;43485;45.680;15.702;2024-03-22T11:29:18;40.80;9.10
57660;DHT22;43485;45.680;15.702;2024-03-22T11:31:44;40.30;9.80
57660;DHT22;43485;45.680;15.702;2024-03-22T11:34:10;39.00;10.30
57660;DHT22;43485;45.680;15.702;2024-03-22T11:36:37;37.80;11.20
57660;DHT22;43485;45.680;15.702;2024-03-22T11:39:03;36.40;12.20
57660;DHT22;43485;45.680;15.702;2024-03-22T11:41:30;35.30;13.10
57660;DHT22;43485;45.680;15.702;2024-03-22T11:43:57;35.30;13.50
57660;DHT22;43485;45.680;15.702;2024-03-22T11:46:24;37.90;11.60
57660;DHT22;43485;45.680;15.702;2024-03-22T11:51:36;39.10;10.70
57660;DHT22;43485;45.680;15.702;2024-03-22T11:54:03;40.60;9.90
57660;DHT22;43485;45.680;15.702;2024-03-22T11:56:29;41.60;9.10
57660;DHT22;43485;45.680;15.702;2024-03-22T11:59:19;41.90;8.70
57660;DHT22;43485;45.680;15.702;2024-03-22T12:01:46;40.50;9.80
57660;DHT22;43485;45.680;15.702;2024-03-22T12:04:12;40.40;10.20
57660;DHT22;43485;45.680;15.702;2024-03-22T12:06:59;40.90;9.60
57660;DHT22;43485;45.680;15.702;2024-03-22T12:09:25;40.80;9.50
57660;DHT22;43485;45.680;15.702;2024-03-22T12:11:51;42.30;9.20
57660;DHT22;43485;45.680;15.702;2024-03-22T12:14:20;43.60;7.80
57660;DHT22;43485;45.680;15.702;2024-03-22T12:16:46;43.90;8.00
57660;DHT22;43485;45.680;15.702;2024-03-22T12:19:12;42.20;8.60
57660;DHT22;43485;45.680;15.702;2024-03-22T12:21:38;39.80;9.90
57660;DHT22;43485;45.680;15.702;2024-03-22T12:24:05;39.90;10.20
57660;DHT22;43485;45.680;15.702;2024-03-22T12:26:31;40.30;9.70
57660;DHT22;43485;45.680;15.702;2024-03-22T12:28:58;40.10;10.80
57660;DHT22;43485;45.680;15.702;2024-03-22T12:31:24;40.10;9.10
57660;DHT22;43485;45.680;15.702;2024-03-22T12:33:50;40.30;10.00
57660;DHT22;43485;45.680;15.702;2024-03-22T12:36:16;39.90;9.70
57660;DHT22;43485;45.680;15.702;2024-03-22T12:38:42;39.70;10.60
57660;DHT22;43485;45.680;15.702;2024-03-22T12:41:08;40.00;10.00
57660;DHT22;43485;45.680;15.702;2024-03-22T12:43:34;40.40;9.30
57660;DHT22;43485;45.680;15.702;2024-03-22T12:46:00;41.10;9.90
57660;DHT22;43485;45.680;15.702;2024-03-22T12:48:26;42.40;8.40
57660;DHT22;43485;45.680;15.702;2024-03-22T12:50:52;43.80;7.50
57660;DHT22;43485;45.680;15.702;2024-03-22T12:53:18;44.10;8.20
57660;DHT22;43485;45.680;15.702;2024-03-22T12:55:44;44.30;8.00
57660;DHT22;43485;45.680;15.702;2024-03-22T12:58:10;44.60;6.60
57660;DHT22;43485;45.680;15.702;2024-03-22T13:00:36;44.80;7.10
57660;DHT22;43485;45.680;15.702;2024-03-22T13:03:03;44.80;6.80
57660;DHT22;43485;45.680;15.702;2024-03-22T13:05:29;44.30;7.30
57660;DHT22;43485;45.680;15.702;2024-03-22T13:07:56;44.10;6.90
57660;DHT22;43485;45.680;15.702;2024-03-22T13:10:22;43.80;7.60
57660;DHT22;43485;45.680;15.702;2024-03-22T13:12:48;44.20;7.50
57660;DHT22;43485;45.680;15.702;2024-03-22T13:15:14;44.50;7.80
57660;DHT22;43485;45.680;15.702;2024-03-22T13:17:40;45.60;7.40
57660;DHT22;43485;45.680;15.702;2024-03-22T13:20:07;46.80;6.90
57660;DHT22;43485;45.680;15.702;2024-03-22T13:22:37;47.40;6.90
57660;DHT22;43485;45.680;15.702;2024-03-22T13:25:04;48.00;6.30
57660;DHT22;43485;45.680;15.702;2024-03-22T13:27:34;47.90;5.80
57660;DHT22;43485;45.680;15.702;2024-03-22T13:30:01;47.00;6.10
57660;DHT22;43485;45.680;15.702;2024-03-22T13:32:28;47.10;6.60
57660;DHT22;43485;45.680;15.702;2024-03-22T13:34:54;47.10;6.40
57660;DHT22;43485;45.680;15.702;2024-03-22T13:37:20;47.40;5.60
57660;DHT22;43485;45.680;15.702;2024-03-22T13:40:05;47.50;5.90
57660;DHT22;43485;45.680;15.702;2024-03-22T13:42:31;46.70;6.20
57660;DHT22;43485;45.680;15.702;2024-03-22T13:44:57;46.30;5.50
57660;DHT22;43485;45.680;15.702;2024-03-22T13:47:24;46.10;5.90
57660;DHT22;43485;45.680;15.702;2024-03-22T13:49:50;45.20;6.10
57660;DHT22;43485;45.680;15.702;2024-03-22T13:52:16;44.70;6.80
57660;DHT22;43485;45.680;15.702;2024-03-22T13:54:43;44.70;7.00
57660;DHT22;43485;45.680;15.702;2024-03-22T13:57:09;45.20;6.90
57660;DHT22;43485;45.680;15.702;2024-03-22T13:59:36;45.30;7.10
57660;DHT22;43485;45.680;15.702;2024-03-22T14:02:02;45.70;6.60
57660;DHT22;43485;45.680;15.702;2024-03-22T14:04:29;45.40;6.10
57660;DHT22;43485;45.680;15.702;2024-03-22T14:06:55;44.80;6.90
57660;DHT22;43485;45.680;15.702;2024-03-22T14:09:21;44.20;6.60
57660;DHT22;43485;45.680;15.702;2024-03-22T14:11:47;43.50;6.80
57660;DHT22;43485;45.680;15.702;2024-03-22T14:14:14;43.30;7.20
57660;DHT22;43485;45.680;15.702;2024-03-22T14:16:41;44.40;6.60
57660;DHT22;43485;45.680;15.702;2024-03-22T14:19:07;45.00;7.00
57660;DHT22;43485;45.680;15.702;2024-03-22T14:21:34;45.10;6.60
57660;DHT22;43485;45.680;15.702;2024-03-22T14:24:00;44.80;6.00
57660;DHT22;43485;45.680;15.702;2024-03-22T14:26:26;45.10;6.20
57660;DHT22;43485;45.680;15.702;2024-03-22T14:28:52;45.20;6.30
57660;DHT22;43485;45.680;15.702;2024-03-22T14:31:19;45.50;6.40
57660;DHT22;43485;45.680;15.702;2024-03-22T14:33:45;45.30;6.20
57660;DHT22;43485;45.680;15.702;2024-03-22T14:36:11;44.20;5.90
57660;DHT22;43485;45.680;15.702;2024-03-22T14:38:38;43.40;6.30
57660;DHT22;43485;45.680;15.702;2024-03-22T14:41:05;42.00;7.20
57660;DHT22;43485;45.680;15.702;2024-03-22T14:43:31;40.90;8.10
57660;DHT22;43485;45.680;15.702;2024-03-22T14:46:01;39.70;7.90
57660;DHT22;43485;45.680;15.702;2024-03-22T14:48:47;38.70;9.20
57660;DHT22;43485;45.680;15.702;2024-03-22T14:51:13;38.00;9.30
57660;DHT22;43485;45.680;15.702;2024-03-22T14:53:39;37.50;9.50
57660;DHT22;43485;45.680;15.702;2024-03-22T14:56:05;37.50;10.20
57660;DHT22;43485;45.680;15.702;2024-03-22T14:58:52;37.10;9.20
57660;DHT22;43485;45.680;15.702;2024-03-22T15:01:18;36.80;10.00
57660;DHT22;43485;45.680;15.702;2024-03-22T15:03:44;36.20;11.20
57660;DHT22;43485;45.680;15.702;2024-03-22T15:06:10;35.40;12.50
57660;DHT22;43485;45.680;15.702;2024-03-22T15:08:36;34.70;12.60
57660;DHT22;43485;45.680;15.702;2024-03-22T15:11:02;33.90;13.70
57660;DHT22;43485;45.680;15.702;2024-03-22T15:13:28;33.30;13.70
57660;DHT22;43485;45.680;15.702;2024-03-22T15:15:56;32.60;14.50
57660;DHT22;43485;45.680;15.702;2024-03-22T15:18:23;32.30;14.80
57660;DHT22;43485;45.680;15.702;2024-03-22T15:20:49;31.70;14.40
57660;DHT22;43485;45.680;15.702;2024-03-22T15:23:17;31.20;15.90
57660;DHT22;43485;45.680;15.702;2024-03-22T15:25:44;30.90;15.00
57660;DHT22;43485;45.680;15.702;2024-03-22T15:28:10;30.60;16.40
57660;DHT22;43485;45.680;15.702;2024-03-22T15:30:37;30.30;16.70